Argyle, Texas
Current Conditions -  °F | °C
As of 12:53 PM on Thursday 30 Oct 2014 (Local Time) from KDTO Reporting Station
Clear Clear  
Wind Chill: 74°   Ceiling: Unl
Heat Index: 74°   Visibility: 10mi
Dew Point: 49°   Wind: 10mph
Humidity: 41%   Direction: 210°SSW
Pressure: 30.13"   Gusts: NA
Location:  33.12°N, 97.18°W
Report Text: KDTO 301753Z 21009KT 10SM CLR 23/09 A3013 RMK AO2 SLP196 T02330094 10233 20072 58014
Loading
Personal Weather Stations






























Interactive Weather Map
Tropical Storm Tracking
New forecast layout! Learn more

10-Day Weather Forecast

Advertisements
Track Severe Weather on mobile